sensor_id;sensor_type;location;lat;lon;timestamp;P1;durP1;ratioP1;P2;durP2;ratioP2
8628;SDS011;4352;49.404;11.092;2022-12-29T00:00:00;3.87;;;2.00;;
8628;SDS011;4352;49.404;11.092;2022-12-29T00:02:27;3.43;;;2.00;;
8628;SDS011;4352;49.404;11.092;2022-12-29T00:04:56;3.23;;;2.10;;
8628;SDS011;4352;49.404;11.092;2022-12-29T00:07:23;2.70;;;1.73;;
8628;SDS011;4352;49.404;11.092;2022-12-29T00:09:50;3.90;;;1.90;;
8628;SDS011;4352;49.404;11.092;2022-12-29T00:12:17;3.00;;;2.00;;
8628;SDS011;4352;49.404;11.092;2022-12-29T00:14:44;2.60;;;1.77;;
8628;SDS011;4352;49.404;11.092;2022-12-29T00:17:29;2.83;;;1.60;;
8628;SDS011;4352;49.404;11.092;2022-12-29T00:19:57;2.97;;;2.10;;
8628;SDS011;4352;49.404;11.092;2022-12-29T00:22:42;2.70;;;2.00;;
8628;SDS011;4352;49.404;11.092;2022-12-29T00:25:27;1.90;;;1.53;;
8628;SDS011;4352;49.404;11.092;2022-12-29T00:28:11;3.00;;;1.83;;
8628;SDS011;4352;49.404;11.092;2022-12-29T00:30:58;2.93;;;1.80;;
8628;SDS011;4352;49.404;11.092;2022-12-29T00:33:42;3.33;;;2.00;;
8628;SDS011;4352;49.404;11.092;2022-12-29T00:36:29;5.87;;;1.87;;
8628;SDS011;4352;49.404;11.092;2022-12-29T00:38:59;3.23;;;1.80;;
8628;SDS011;4352;49.404;11.092;2022-12-29T00:41:44;2.30;;;1.63;;
8628;SDS011;4352;49.404;11.092;2022-12-29T00:44:28;3.00;;;1.87;;
8628;SDS011;4352;49.404;11.092;2022-12-29T00:46:55;3.37;;;2.00;;
8628;SDS011;4352;49.404;11.092;2022-12-29T00:49:27;2.10;;;1.73;;
8628;SDS011;4352;49.404;11.092;2022-12-29T00:51:58;4.53;;;2.20;;
8628;SDS011;4352;49.404;11.092;2022-12-29T00:54:25;4.50;;;1.70;;
8628;SDS011;4352;49.404;11.092;2022-12-29T00:56:53;2.60;;;1.50;;
8628;SDS011;4352;49.404;11.092;2022-12-29T00:59:20;4.07;;;1.60;;
8628;SDS011;4352;49.404;11.092;2022-12-29T01:01:49;4.30;;;1.70;;
8628;SDS011;4352;49.404;11.092;2022-12-29T01:04:16;4.03;;;2.00;;
8628;SDS011;4352;49.404;11.092;2022-12-29T01:06:43;2.43;;;1.80;;
8628;SDS011;4352;49.404;11.092;2022-12-29T01:09:11;2.37;;;1.50;;
8628;SDS011;4352;49.404;11.092;2022-12-29T01:11:56;3.07;;;1.70;;
8628;SDS011;4352;49.404;11.092;2022-12-29T01:14:23;3.13;;;1.80;;
8628;SDS011;4352;49.404;11.092;2022-12-29T01:16:50;3.40;;;1.90;;
8628;SDS011;4352;49.404;11.092;2022-12-29T01:19:18;2.47;;;1.77;;
8628;SDS011;4352;49.404;11.092;2022-12-29T01:21:45;2.63;;;1.70;;
8628;SDS011;4352;49.404;11.092;2022-12-29T01:24:14;3.17;;;2.20;;
8628;SDS011;4352;49.404;11.092;2022-12-29T01:26:41;2.63;;;1.80;;
8628;SDS011;4352;49.404;11.092;2022-12-29T01:29:08;2.00;;;1.50;;
8628;SDS011;4352;49.404;11.092;2022-12-29T01:31:36;3.97;;;1.60;;
8628;SDS011;4352;49.404;11.092;2022-12-29T01:34:03;2.07;;;1.80;;
8628;SDS011;4352;49.404;11.092;2022-12-29T01:36:30;2.47;;;1.70;;
8628;SDS011;4352;49.404;11.092;2022-12-29T01:38:57;2.70;;;2.00;;
8628;SDS011;4352;49.404;11.092;2022-12-29T01:41:26;2.10;;;1.70;;
8628;SDS011;4352;49.404;11.092;2022-12-29T01:43:54;2.03;;;1.70;;
8628;SDS011;4352;49.404;11.092;2022-12-29T01:46:23;3.70;;;1.80;;
8628;SDS011;4352;49.404;11.092;2022-12-29T01:48:53;3.13;;;1.90;;
8628;SDS011;4352;49.404;11.092;2022-12-29T01:51:21;3.43;;;1.97;;
8628;SDS011;4352;49.404;11.092;2022-12-29T01:53:49;3.73;;;1.87;;
8628;SDS011;4352;49.404;11.092;2022-12-29T01:56:17;2.43;;;1.73;;
8628;SDS011;4352;49.404;11.092;2022-12-29T01:58:48;3.37;;;1.70;;
8628;SDS011;4352;49.404;11.092;2022-12-29T02:01:16;1.60;;;1.50;;
8628;SDS011;4352;49.404;11.092;2022-12-29T02:03:45;2.00;;;1.40;;
8628;SDS011;4352;49.404;11.092;2022-12-29T02:06:13;2.87;;;1.87;;
8628;SDS011;4352;49.404;11.092;2022-12-29T02:08:42;2.30;;;1.80;;
8628;SDS011;4352;49.404;11.092;2022-12-29T02:11:09;3.03;;;2.10;;
8628;SDS011;4352;49.404;11.092;2022-12-29T02:13:37;2.30;;;1.80;;
8628;SDS011;4352;49.404;11.092;2022-12-29T02:16:08;2.43;;;1.97;;
8628;SDS011;4352;49.404;11.092;2022-12-29T02:18:41;4.73;;;1.87;;
8628;SDS011;4352;49.404;11.092;2022-12-29T02:21:29;2.83;;;1.90;;
8628;SDS011;4352;49.404;11.092;2022-12-29T02:27:11;2.23;;;1.70;;
8628;SDS011;4352;49.404;11.092;2022-12-29T02:32:39;4.10;;;1.80;;
8628;SDS011;4352;49.404;11.092;2022-12-29T02:35:10;2.37;;;1.60;;
8628;SDS011;4352;49.404;11.092;2022-12-29T02:37:40;2.70;;;1.80;;
8628;SDS011;4352;49.404;11.092;2022-12-29T02:40:10;2.43;;;2.00;;
8628;SDS011;4352;49.404;11.092;2022-12-29T02:42:42;2.77;;;1.77;;
8628;SDS011;4352;49.404;11.092;2022-12-29T02:45:12;2.53;;;1.67;;
8628;SDS011;4352;49.404;11.092;2022-12-29T02:47:46;3.03;;;2.00;;
8628;SDS011;4352;49.404;11.092;2022-12-29T02:50:17;2.83;;;1.80;;
8628;SDS011;4352;49.404;11.092;2022-12-29T02:52:46;2.80;;;1.50;;
8628;SDS011;4352;49.404;11.092;2022-12-29T02:55:14;4.03;;;1.60;;
8628;SDS011;4352;49.404;11.092;2022-12-29T02:57:41;3.13;;;1.80;;
8628;SDS011;4352;49.404;11.092;2022-12-29T03:00:09;2.07;;;1.60;;
8628;SDS011;4352;49.404;11.092;2022-12-29T03:05:32;2.90;;;2.20;;
8628;SDS011;4352;49.404;11.092;2022-12-29T03:08:06;4.80;;;1.97;;
8628;SDS011;4352;49.404;11.092;2022-12-29T03:10:37;2.47;;;1.80;;
8628;SDS011;4352;49.404;11.092;2022-12-29T03:13:07;4.37;;;2.00;;
8628;SDS011;4352;49.404;11.092;2022-12-29T03:16:01;2.87;;;1.83;;
8628;SDS011;4352;49.404;11.092;2022-12-29T03:18:34;2.17;;;1.77;;
8628;SDS011;4352;49.404;11.092;2022-12-29T03:21:05;4.40;;;2.00;;
8628;SDS011;4352;49.404;11.092;2022-12-29T03:23:34;2.63;;;1.90;;
8628;SDS011;4352;49.404;11.092;2022-12-29T03:26:02;3.13;;;1.77;;
8628;SDS011;4352;49.404;11.092;2022-12-29T03:28:31;2.83;;;1.70;;
8628;SDS011;4352;49.404;11.092;2022-12-29T03:31:00;3.50;;;2.00;;
8628;SDS011;4352;49.404;11.092;2022-12-29T03:33:27;2.10;;;1.53;;
8628;SDS011;4352;49.404;11.092;2022-12-29T03:35:56;2.23;;;1.70;;
8628;SDS011;4352;49.404;11.092;2022-12-29T03:38:27;3.43;;;1.53;;
8628;SDS011;4352;49.404;11.092;2022-12-29T03:40:57;2.87;;;1.70;;
8628;SDS011;4352;49.404;11.092;2022-12-29T03:43:26;8.57;;;1.70;;
8628;SDS011;4352;49.404;11.092;2022-12-29T03:45:53;2.33;;;1.60;;
8628;SDS011;4352;49.404;11.092;2022-12-29T03:48:20;4.87;;;1.93;;
8628;SDS011;4352;49.404;11.092;2022-12-29T03:50:47;2.73;;;1.90;;
8628;SDS011;4352;49.404;11.092;2022-12-29T03:53:14;2.83;;;1.57;;
8628;SDS011;4352;49.404;11.092;2022-12-29T03:55:43;3.80;;;1.60;;
8628;SDS011;4352;49.404;11.092;2022-12-29T03:58:10;2.77;;;1.77;;
8628;SDS011;4352;49.404;11.092;2022-12-29T04:00:37;5.30;;;1.90;;
8628;SDS011;4352;49.404;11.092;2022-12-29T04:03:04;2.67;;;1.87;;
8628;SDS011;4352;49.404;11.092;2022-12-29T04:05:31;4.10;;;2.10;;
8628;SDS011;4352;49.404;11.092;2022-12-29T04:07:58;3.87;;;1.80;;
8628;SDS011;4352;49.404;11.092;2022-12-29T04:10:25;2.10;;;1.73;;
8628;SDS011;4352;49.404;11.092;2022-12-29T04:12:54;4.00;;;1.90;;
8628;SDS011;4352;49.404;11.092;2022-12-29T04:15:21;5.53;;;2.10;;
8628;SDS011;4352;49.404;11.092;2022-12-29T04:17:49;2.40;;;1.77;;
8628;SDS011;4352;49.404;11.092;2022-12-29T04:20:16;2.40;;;1.60;;
8628;SDS011;4352;49.404;11.092;2022-12-29T04:23:01;4.43;;;1.90;;
8628;SDS011;4352;49.404;11.092;2022-12-29T04:25:29;2.27;;;1.70;;
8628;SDS011;4352;49.404;11.092;2022-12-29T04:27:58;4.47;;;2.00;;
8628;SDS011;4352;49.404;11.092;2022-12-29T04:30:25;3.70;;;1.83;;
8628;SDS011;4352;49.404;11.092;2022-12-29T04:32:53;3.07;;;1.90;;
8628;SDS011;4352;49.404;11.092;2022-12-29T04:35:20;2.93;;;1.73;;
8628;SDS011;4352;49.404;11.092;2022-12-29T04:37:47;4.27;;;1.90;;
8628;SDS011;4352;49.404;11.092;2022-12-29T04:40:14;5.40;;;2.33;;
8628;SDS011;4352;49.404;11.092;2022-12-29T04:42:41;1.90;;;1.53;;
8628;SDS011;4352;49.404;11.092;2022-12-29T04:45:10;4.23;;;1.80;;
8628;SDS011;4352;49.404;11.092;2022-12-29T04:47:37;1.73;;;1.40;;
8628;SDS011;4352;49.404;11.092;2022-12-29T04:50:04;3.50;;;2.00;;
8628;SDS011;4352;49.404;11.092;2022-12-29T04:52:32;3.37;;;1.70;;
8628;SDS011;4352;49.404;11.092;2022-12-29T04:54:59;2.37;;;1.70;;
8628;SDS011;4352;49.404;11.092;2022-12-29T04:57:26;3.73;;;1.73;;
8628;SDS011;4352;49.404;11.092;2022-12-29T04:59:53;2.30;;;1.70;;
8628;SDS011;4352;49.404;11.092;2022-12-29T05:02:21;2.30;;;1.50;;
8628;SDS011;4352;49.404;11.092;2022-12-29T05:04:48;3.47;;;1.73;;
8628;SDS011;4352;49.404;11.092;2022-12-29T05:07:15;3.03;;;1.80;;
8628;SDS011;4352;49.404;11.092;2022-12-29T05:09:43;2.80;;;1.70;;
8628;SDS011;4352;49.404;11.092;2022-12-29T05:12:10;2.60;;;1.70;;
8628;SDS011;4352;49.404;11.092;2022-12-29T05:14:37;3.57;;;1.63;;
8628;SDS011;4352;49.404;11.092;2022-12-29T05:17:04;2.37;;;1.53;;
8628;SDS011;4352;49.404;11.092;2022-12-29T05:19:32;4.10;;;2.17;;
8628;SDS011;4352;49.404;11.092;2022-12-29T05:21:59;3.47;;;2.20;;
8628;SDS011;4352;49.404;11.092;2022-12-29T05:24:26;4.00;;;2.03;;
8628;SDS011;4352;49.404;11.092;2022-12-29T05:26:53;3.27;;;2.33;;
8628;SDS011;4352;49.404;11.092;2022-12-29T05:29:20;4.20;;;2.00;;
8628;SDS011;4352;49.404;11.092;2022-12-29T05:31:47;3.57;;;2.00;;
8628;SDS011;4352;49.404;11.092;2022-12-29T05:34:15;4.27;;;1.83;;
8628;SDS011;4352;49.404;11.092;2022-12-29T05:36:43;3.80;;;1.90;;
8628;SDS011;4352;49.404;11.092;2022-12-29T05:39:10;3.10;;;1.80;;
8628;SDS011;4352;49.404;11.092;2022-12-29T05:41:37;3.17;;;1.73;;
8628;SDS011;4352;49.404;11.092;2022-12-29T05:44:04;2.77;;;1.70;;
8628;SDS011;4352;49.404;11.092;2022-12-29T05:46:31;3.03;;;1.60;;
8628;SDS011;4352;49.404;11.092;2022-12-29T05:48:58;2.87;;;1.67;;
8628;SDS011;4352;49.404;11.092;2022-12-29T05:51:25;5.27;;;1.97;;
8628;SDS011;4352;49.404;11.092;2022-12-29T05:53:54;3.00;;;1.60;;
8628;SDS011;4352;49.404;11.092;2022-12-29T05:56:21;3.63;;;1.70;;
8628;SDS011;4352;49.404;11.092;2022-12-29T05:58:48;2.37;;;1.47;;
8628;SDS011;4352;49.404;11.092;2022-12-29T06:01:15;2.93;;;1.70;;
8628;SDS011;4352;49.404;11.092;2022-12-29T06:03:42;2.90;;;1.70;;
8628;SDS011;4352;49.404;11.092;2022-12-29T06:06:09;3.20;;;1.90;;
8628;SDS011;4352;49.404;11.092;2022-12-29T06:08:36;5.13;;;2.20;;
8628;SDS011;4352;49.404;11.092;2022-12-29T06:11:05;7.43;;;2.70;;
8628;SDS011;4352;49.404;11.092;2022-12-29T06:13:32;4.83;;;2.67;;
8628;SDS011;4352;49.404;11.092;2022-12-29T06:15:59;3.67;;;2.30;;
8628;SDS011;4352;49.404;11.092;2022-12-29T06:18:26;3.37;;;1.87;;
8628;SDS011;4352;49.404;11.092;2022-12-29T06:20:54;3.67;;;2.00;;
8628;SDS011;4352;49.404;11.092;2022-12-29T06:23:21;2.93;;;1.97;;
8628;SDS011;4352;49.404;11.092;2022-12-29T06:25:48;2.10;;;1.70;;
8628;SDS011;4352;49.404;11.092;2022-12-29T06:28:16;5.83;;;2.47;;
8628;SDS011;4352;49.404;11.092;2022-12-29T06:30:43;2.83;;;2.07;;
8628;SDS011;4352;49.404;11.092;2022-12-29T06:33:11;7.33;;;2.80;;
8628;SDS011;4352;49.404;11.092;2022-12-29T06:35:38;7.57;;;2.13;;
8628;SDS011;4352;49.404;11.092;2022-12-29T06:38:05;2.73;;;2.20;;
8628;SDS011;4352;49.404;11.092;2022-12-29T06:40:32;3.17;;;2.00;;
8628;SDS011;4352;49.404;11.092;2022-12-29T06:42:59;4.20;;;2.27;;
8628;SDS011;4352;49.404;11.092;2022-12-29T06:45:27;3.43;;;2.30;;
8628;SDS011;4352;49.404;11.092;2022-12-29T06:47:54;4.93;;;1.97;;
8628;SDS011;4352;49.404;11.092;2022-12-29T06:50:22;3.50;;;2.40;;
8628;SDS011;4352;49.404;11.092;2022-12-29T06:52:49;4.30;;;2.47;;
8628;SDS011;4352;49.404;11.092;2022-12-29T06:55:16;6.03;;;3.10;;
8628;SDS011;4352;49.404;11.092;2022-12-29T06:57:43;6.57;;;2.40;;
8628;SDS011;4352;49.404;11.092;2022-12-29T07:00:10;5.37;;;2.40;;
8628;SDS011;4352;49.404;11.092;2022-12-29T07:02:39;4.20;;;2.30;;
8628;SDS011;4352;49.404;11.092;2022-12-29T07:05:06;3.47;;;2.30;;
8628;SDS011;4352;49.404;11.092;2022-12-29T07:07:34;4.23;;;2.33;;
8628;SDS011;4352;49.404;11.092;2022-12-29T07:10:01;4.47;;;2.57;;
8628;SDS011;4352;49.404;11.092;2022-12-29T07:12:28;3.60;;;1.90;;
8628;SDS011;4352;49.404;11.092;2022-12-29T07:14:55;3.53;;;1.60;;
8628;SDS011;4352;49.404;11.092;2022-12-29T07:17:22;4.37;;;2.50;;
8628;SDS011;4352;49.404;11.092;2022-12-29T07:19:51;3.07;;;1.80;;
8628;SDS011;4352;49.404;11.092;2022-12-29T07:22:18;5.70;;;2.10;;
8628;SDS011;4352;49.404;11.092;2022-12-29T07:24:45;2.63;;;1.80;;
8628;SDS011;4352;49.404;11.092;2022-12-29T07:27:12;3.17;;;1.90;;
8628;SDS011;4352;49.404;11.092;2022-12-29T07:29:39;2.93;;;1.97;;
8628;SDS011;4352;49.404;11.092;2022-12-29T07:32:06;2.97;;;1.60;;
8628;SDS011;4352;49.404;11.092;2022-12-29T07:34:33;4.57;;;2.00;;
8628;SDS011;4352;49.404;11.092;2022-12-29T07:37:02;5.07;;;1.90;;
8628;SDS011;4352;49.404;11.092;2022-12-29T07:39:29;3.67;;;1.77;;
8628;SDS011;4352;49.404;11.092;2022-12-29T07:41:56;4.97;;;2.60;;
8628;SDS011;4352;49.404;11.092;2022-12-29T07:44:23;4.57;;;2.17;;
8628;SDS011;4352;49.404;11.092;2022-12-29T07:46:50;3.53;;;2.00;;
8628;SDS011;4352;49.404;11.092;2022-12-29T07:49:17;4.00;;;2.20;;
8628;SDS011;4352;49.404;11.092;2022-12-29T07:51:44;4.50;;;2.03;;
8628;SDS011;4352;49.404;11.092;2022-12-29T07:54:13;6.30;;;2.00;;
8628;SDS011;4352;49.404;11.092;2022-12-29T07:56:43;3.03;;;1.87;;
8628;SDS011;4352;49.404;11.092;2022-12-29T07:59:10;3.03;;;2.10;;
8628;SDS011;4352;49.404;11.092;2022-12-29T08:01:38;4.47;;;1.80;;
8628;SDS011;4352;49.404;11.092;2022-12-29T08:04:05;4.27;;;2.20;;
8628;SDS011;4352;49.404;11.092;2022-12-29T08:06:32;3.43;;;1.87;;
8628;SDS011;4352;49.404;11.092;2022-12-29T08:08:59;4.53;;;2.07;;
8628;SDS011;4352;49.404;11.092;2022-12-29T08:11:28;2.00;;;1.80;;
8628;SDS011;4352;49.404;11.092;2022-12-29T08:13:55;2.47;;;1.90;;
8628;SDS011;4352;49.404;11.092;2022-12-29T08:16:22;3.00;;;1.97;;
8628;SDS011;4352;49.404;11.092;2022-12-29T08:18:49;4.33;;;1.70;;
8628;SDS011;4352;49.404;11.092;2022-12-29T08:21:16;3.50;;;1.80;;
8628;SDS011;4352;49.404;11.092;2022-12-29T08:23:43;2.57;;;1.70;;
8628;SDS011;4352;49.404;11.092;2022-12-29T08:26:10;3.27;;;1.93;;
8628;SDS011;4352;49.404;11.092;2022-12-29T08:28:39;2.00;;;1.30;;
8628;SDS011;4352;49.404;11.092;2022-12-29T08:31:06;2.33;;;1.63;;
8628;SDS011;4352;49.404;11.092;2022-12-29T08:33:33;2.73;;;1.93;;
8628;SDS011;4352;49.404;11.092;2022-12-29T08:36:00;2.17;;;1.80;;
8628;SDS011;4352;49.404;11.092;2022-12-29T08:38:27;5.20;;;2.07;;
8628;SDS011;4352;49.404;11.092;2022-12-29T08:40:55;3.07;;;2.10;;
8628;SDS011;4352;49.404;11.092;2022-12-29T08:43:22;3.40;;;2.27;;
8628;SDS011;4352;49.404;11.092;2022-12-29T08:45:50;3.70;;;1.90;;
8628;SDS011;4352;49.404;11.092;2022-12-29T08:48:17;2.83;;;1.63;;
8628;SDS011;4352;49.404;11.092;2022-12-29T08:50:47;3.87;;;1.87;;
8628;SDS011;4352;49.404;11.092;2022-12-29T08:53:14;5.13;;;2.00;;
8628;SDS011;4352;49.404;11.092;2022-12-29T08:55:44;3.47;;;1.97;;
8628;SDS011;4352;49.404;11.092;2022-12-29T08:58:11;2.53;;;1.80;;
8628;SDS011;4352;49.404;11.092;2022-12-29T09:00:39;5.40;;;2.00;;
8628;SDS011;4352;49.404;11.092;2022-12-29T09:03:08;2.67;;;1.80;;
8628;SDS011;4352;49.404;11.092;2022-12-29T09:05:35;3.70;;;1.77;;
8628;SDS011;4352;49.404;11.092;2022-12-29T09:08:02;2.97;;;1.60;;
8628;SDS011;4352;49.404;11.092;2022-12-29T09:10:29;2.63;;;1.70;;
8628;SDS011;4352;49.404;11.092;2022-12-29T09:12:56;2.97;;;1.80;;
8628;SDS011;4352;49.404;11.092;2022-12-29T09:15:23;2.77;;;1.87;;
8628;SDS011;4352;49.404;11.092;2022-12-29T09:17:50;2.63;;;1.67;;
8628;SDS011;4352;49.404;11.092;2022-12-29T09:20:19;2.17;;;1.60;;
8628;SDS011;4352;49.404;11.092;2022-12-29T09:22:46;2.10;;;1.77;;
8628;SDS011;4352;49.404;11.092;2022-12-29T09:25:14;3.40;;;2.20;;
8628;SDS011;4352;49.404;11.092;2022-12-29T09:27:41;3.93;;;1.90;;
8628;SDS011;4352;49.404;11.092;2022-12-29T09:30:09;3.37;;;1.93;;
8628;SDS011;4352;49.404;11.092;2022-12-29T09:32:37;2.63;;;2.00;;
8628;SDS011;4352;49.404;11.092;2022-12-29T09:35:04;7.67;;;2.30;;
8628;SDS011;4352;49.404;11.092;2022-12-29T09:37:32;4.17;;;2.30;;
8628;SDS011;4352;49.404;11.092;2022-12-29T09:39:59;4.33;;;2.50;;
8628;SDS011;4352;49.404;11.092;2022-12-29T09:42:27;4.60;;;2.30;;
8628;SDS011;4352;49.404;11.092;2022-12-29T09:45:01;5.50;;;2.23;;
8628;SDS011;4352;49.404;11.092;2022-12-29T09:47:30;4.07;;;2.20;;
8628;SDS011;4352;49.404;11.092;2022-12-29T09:49:58;2.37;;;1.80;;
8628;SDS011;4352;49.404;11.092;2022-12-29T09:52:29;3.67;;;1.97;;
8628;SDS011;4352;49.404;11.092;2022-12-29T09:55:00;2.97;;;1.97;;
8628;SDS011;4352;49.404;11.092;2022-12-29T09:57:29;3.07;;;1.73;;
8628;SDS011;4352;49.404;11.092;2022-12-29T09:59:59;3.73;;;2.17;;
8628;SDS011;4352;49.404;11.092;2022-12-29T10:02:31;4.87;;;2.60;;
8628;SDS011;4352;49.404;11.092;2022-12-29T10:04:59;3.93;;;2.33;;
8628;SDS011;4352;49.404;11.092;2022-12-29T10:07:28;3.40;;;2.00;;
8628;SDS011;4352;49.404;11.092;2022-12-29T10:10:01;4.50;;;1.93;;
8628;SDS011;4352;49.404;11.092;2022-12-29T10:12:31;5.37;;;2.27;;
8628;SDS011;4352;49.404;11.092;2022-12-29T10:15:01;3.37;;;2.50;;
8628;SDS011;4352;49.404;11.092;2022-12-29T10:17:31;6.73;;;1.80;;
8628;SDS011;4352;49.404;11.092;2022-12-29T10:20:03;3.33;;;1.90;;
8628;SDS011;4352;49.404;11.092;2022-12-29T10:22:40;3.70;;;2.00;;
8628;SDS011;4352;49.404;11.092;2022-12-29T10:25:13;3.60;;;2.10;;
8628;SDS011;4352;49.404;11.092;2022-12-29T10:27:43;3.10;;;1.90;;
8628;SDS011;4352;49.404;11.092;2022-12-29T10:30:11;3.27;;;2.00;;
8628;SDS011;4352;49.404;11.092;2022-12-29T10:32:39;3.50;;;2.00;;
8628;SDS011;4352;49.404;11.092;2022-12-29T10:35:10;5.33;;;2.67;;
8628;SDS011;4352;49.404;11.092;2022-12-29T10:37:39;8.97;;;3.13;;
8628;SDS011;4352;49.404;11.092;2022-12-29T10:40:14;4.67;;;2.70;;
8628;SDS011;4352;49.404;11.092;2022-12-29T10:42:42;3.97;;;2.47;;
8628;SDS011;4352;49.404;11.092;2022-12-29T10:45:12;4.97;;;2.50;;
8628;SDS011;4352;49.404;11.092;2022-12-29T10:47:43;4.13;;;2.40;;
8628;SDS011;4352;49.404;11.092;2022-12-29T10:50:11;4.47;;;2.47;;
8628;SDS011;4352;49.404;11.092;2022-12-29T10:52:39;4.03;;;2.60;;
8628;SDS011;4352;49.404;11.092;2022-12-29T10:55:08;6.57;;;2.43;;
8628;SDS011;4352;49.404;11.092;2022-12-29T10:57:40;5.63;;;2.50;;
8628;SDS011;4352;49.404;11.092;2022-12-29T11:00:11;2.80;;;1.90;;
8628;SDS011;4352;49.404;11.092;2022-12-29T11:02:46;2.67;;;1.80;;
8628;SDS011;4352;49.404;11.092;2022-12-29T11:05:19;5.90;;;2.20;;
8628;SDS011;4352;49.404;11.092;2022-12-29T11:07:50;8.57;;;4.27;;
8628;SDS011;4352;49.404;11.092;2022-12-29T11:10:19;9.43;;;3.10;;
8628;SDS011;4352;49.404;11.092;2022-12-29T11:15:39;4.77;;;2.80;;
8628;SDS011;4352;49.404;11.092;2022-12-29T11:18:18;7.73;;;2.20;;
8628;SDS011;4352;49.404;11.092;2022-12-29T11:20:46;5.10;;;1.90;;
8628;SDS011;4352;49.404;11.092;2022-12-29T11:26:05;3.80;;;1.60;;
8628;SDS011;4352;49.404;11.092;2022-12-29T11:28:33;8.10;;;2.57;;
8628;SDS011;4352;49.404;11.092;2022-12-29T11:31:02;5.13;;;2.20;;
8628;SDS011;4352;49.404;11.092;2022-12-29T11:33:29;8.50;;;2.83;;
8628;SDS011;4352;49.404;11.092;2022-12-29T11:35:57;6.07;;;2.27;;
8628;SDS011;4352;49.404;11.092;2022-12-29T11:38:25;4.40;;;2.17;;
8628;SDS011;4352;49.404;11.092;2022-12-29T11:40:54;4.97;;;2.20;;
8628;SDS011;4352;49.404;11.092;2022-12-29T11:43:21;4.03;;;2.60;;
8628;SDS011;4352;49.404;11.092;2022-12-29T11:45:51;5.60;;;2.37;;
8628;SDS011;4352;49.404;11.092;2022-12-29T11:48:22;3.30;;;1.83;;
8628;SDS011;4352;49.404;11.092;2022-12-29T11:50:51;7.13;;;2.33;;
8628;SDS011;4352;49.404;11.092;2022-12-29T11:53:20;5.50;;;2.40;;
8628;SDS011;4352;49.404;11.092;2022-12-29T11:55:52;5.20;;;2.50;;
8628;SDS011;4352;49.404;11.092;2022-12-29T11:58:20;5.20;;;1.93;;
8628;SDS011;4352;49.404;11.092;2022-12-29T12:00:47;3.67;;;1.80;;
8628;SDS011;4352;49.404;11.092;2022-12-29T12:03:16;6.47;;;2.67;;
8628;SDS011;4352;49.404;11.092;2022-12-29T12:05:46;5.03;;;2.00;;
8628;SDS011;4352;49.404;11.092;2022-12-29T12:08:18;5.17;;;2.27;;
8628;SDS011;4352;49.404;11.092;2022-12-29T12:10:46;5.07;;;2.90;;
8628;SDS011;4352;49.404;11.092;2022-12-29T12:13:17;7.03;;;3.10;;
8628;SDS011;4352;49.404;11.092;2022-12-29T12:15:47;2.70;;;1.90;;
8628;SDS011;4352;49.404;11.092;2022-12-29T12:18:16;5.03;;;1.90;;
8628;SDS011;4352;49.404;11.092;2022-12-29T12:20:47;3.87;;;2.00;;
8628;SDS011;4352;49.404;11.092;2022-12-29T12:23:19;7.13;;;2.93;;
8628;SDS011;4352;49.404;11.092;2022-12-29T12:25:51;4.87;;;3.00;;
8628;SDS011;4352;49.404;11.092;2022-12-29T12:28:23;10.13;;;4.77;;
8628;SDS011;4352;49.404;11.092;2022-12-29T12:30:52;3.77;;;2.20;;
8628;SDS011;4352;49.404;11.092;2022-12-29T12:33:22;7.60;;;3.50;;
8628;SDS011;4352;49.404;11.092;2022-12-29T12:35:53;5.10;;;2.43;;
8628;SDS011;4352;49.404;11.092;2022-12-29T12:38:23;7.27;;;3.70;;
8628;SDS011;4352;49.404;11.092;2022-12-29T12:41:02;5.20;;;2.40;;
8628;SDS011;4352;49.404;11.092;2022-12-29T12:43:36;6.53;;;3.37;;
8628;SDS011;4352;49.404;11.092;2022-12-29T12:46:09;6.13;;;2.90;;
8628;SDS011;4352;49.404;11.092;2022-12-29T12:48:44;9.70;;;3.63;;
8628;SDS011;4352;49.404;11.092;2022-12-29T12:51:15;6.60;;;4.30;;
8628;SDS011;4352;49.404;11.092;2022-12-29T12:53:50;8.57;;;5.37;;
8628;SDS011;4352;49.404;11.092;2022-12-29T12:56:28;5.93;;;3.23;;
8628;SDS011;4352;49.404;11.092;2022-12-29T12:58:59;6.90;;;3.43;;
8628;SDS011;4352;49.404;11.092;2022-12-29T13:01:32;6.63;;;2.70;;
8628;SDS011;4352;49.404;11.092;2022-12-29T13:04:10;7.30;;;3.10;;
8628;SDS011;4352;49.404;11.092;2022-12-29T13:06:41;6.67;;;3.00;;
8628;SDS011;4352;49.404;11.092;2022-12-29T13:09:21;6.20;;;2.90;;
8628;SDS011;4352;49.404;11.092;2022-12-29T13:11:56;6.83;;;3.20;;
8628;SDS011;4352;49.404;11.092;2022-12-29T13:14:29;6.27;;;2.50;;
8628;SDS011;4352;49.404;11.092;2022-12-29T13:17:02;4.47;;;2.67;;
8628;SDS011;4352;49.404;11.092;2022-12-29T13:19:34;7.27;;;2.77;;
8628;SDS011;4352;49.404;11.092;2022-12-29T13:22:07;5.70;;;2.87;;
8628;SDS011;4352;49.404;11.092;2022-12-29T13:24:40;7.17;;;3.10;;
8628;SDS011;4352;49.404;11.092;2022-12-29T13:27:12;8.57;;;3.50;;
8628;SDS011;4352;49.404;11.092;2022-12-29T13:29:42;6.20;;;2.53;;
8628;SDS011;4352;49.404;11.092;2022-12-29T13:32:15;6.27;;;2.60;;
8628;SDS011;4352;49.404;11.092;2022-12-29T13:34:48;6.67;;;3.17;;
8628;SDS011;4352;49.404;11.092;2022-12-29T13:37:22;5.63;;;2.60;;
8628;SDS011;4352;49.404;11.092;2022-12-29T13:39:52;10.37;;;2.80;;
8628;SDS011;4352;49.404;11.092;2022-12-29T13:42:19;4.80;;;2.57;;
8628;SDS011;4352;49.404;11.092;2022-12-29T13:44:48;7.80;;;3.30;;
8628;SDS011;4352;49.404;11.092;2022-12-29T13:47:19;8.03;;;2.80;;
8628;SDS011;4352;49.404;11.092;2022-12-29T13:49:47;6.27;;;2.50;;
8628;SDS011;4352;49.404;11.092;2022-12-29T13:52:15;11.63;;;6.00;;
8628;SDS011;4352;49.404;11.092;2022-12-29T13:54:51;15.13;;;8.03;;
8628;SDS011;4352;49.404;11.092;2022-12-29T13:57:39;12.67;;;4.60;;
8628;SDS011;4352;49.404;11.092;2022-12-29T14:00:11;10.03;;;3.20;;
8628;SDS011;4352;49.404;11.092;2022-12-29T14:02:42;8.70;;;2.70;;
8628;SDS011;4352;49.404;11.092;2022-12-29T14:05:26;9.33;;;3.20;;
8628;SDS011;4352;49.404;11.092;2022-12-29T14:07:56;5.10;;;2.30;;
8628;SDS011;4352;49.404;11.092;2022-12-29T14:10:27;2.40;;;2.03;;
8628;SDS011;4352;49.404;11.092;2022-12-29T14:12:59;3.60;;;2.07;;
8628;SDS011;4352;49.404;11.092;2022-12-29T14:15:27;6.07;;;3.10;;
8628;SDS011;4352;49.404;11.092;2022-12-29T14:18:10;5.67;;;2.83;;
8628;SDS011;4352;49.404;11.092;2022-12-29T14:20:40;3.90;;;2.50;;
8628;SDS011;4352;49.404;11.092;2022-12-29T14:23:17;7.03;;;2.47;;
8628;SDS011;4352;49.404;11.092;2022-12-29T14:25:58;4.70;;;2.57;;
8628;SDS011;4352;49.404;11.092;2022-12-29T14:28:26;3.90;;;2.47;;
8628;SDS011;4352;49.404;11.092;2022-12-29T14:30:54;5.07;;;2.73;;
8628;SDS011;4352;49.404;11.092;2022-12-29T14:33:22;4.60;;;2.83;;
8628;SDS011;4352;49.404;11.092;2022-12-29T14:35:52;4.10;;;2.50;;
8628;SDS011;4352;49.404;11.092;2022-12-29T14:38:20;5.00;;;3.30;;
8628;SDS011;4352;49.404;11.092;2022-12-29T14:40:48;3.87;;;2.60;;
8628;SDS011;4352;49.404;11.092;2022-12-29T14:43:20;7.23;;;3.13;;
8628;SDS011;4352;49.404;11.092;2022-12-29T14:45:51;6.67;;;3.30;;
8628;SDS011;4352;49.404;11.092;2022-12-29T14:48:26;4.37;;;2.80;;
8628;SDS011;4352;49.404;11.092;2022-12-29T14:50:57;4.97;;;3.10;;
8628;SDS011;4352;49.404;11.092;2022-12-29T14:53:41;5.90;;;3.70;;
8628;SDS011;4352;49.404;11.092;2022-12-29T14:56:09;6.83;;;3.60;;
8628;SDS011;4352;49.404;11.092;2022-12-29T14:58:40;4.77;;;2.90;;
8628;SDS011;4352;49.404;11.092;2022-12-29T15:01:14;4.20;;;2.57;;
8628;SDS011;4352;49.404;11.092;2022-12-29T15:03:44;6.13;;;3.40;;
8628;SDS011;4352;49.404;11.092;2022-12-29T15:06:12;9.33;;;4.37;;
8628;SDS011;4352;49.404;11.092;2022-12-29T15:08:44;6.67;;;3.97;;
8628;SDS011;4352;49.404;11.092;2022-12-29T15:11:14;4.93;;;3.03;;
8628;SDS011;4352;49.404;11.092;2022-12-29T15:13:43;6.30;;;3.70;;
8628;SDS011;4352;49.404;11.092;2022-12-29T15:16:21;7.27;;;3.53;;
8628;SDS011;4352;49.404;11.092;2022-12-29T15:18:48;3.80;;;2.70;;
8628;SDS011;4352;49.404;11.092;2022-12-29T15:21:16;8.93;;;3.37;;
8628;SDS011;4352;49.404;11.092;2022-12-29T15:23:43;5.97;;;2.67;;
8628;SDS011;4352;49.404;11.092;2022-12-29T15:26:11;4.97;;;2.53;;
8628;SDS011;4352;49.404;11.092;2022-12-29T15:28:47;4.73;;;2.80;;